Time;durP1;ratioP1;P1;durP2;ratioP2;P2;SDS_P1;SDS_P2;PMS_P1;PMS_P2;Temp;Humidity;BMP_temperature;BMP_pressure;BME280_temperature;BME280_humidity;BME280_pressure;Samples;Min_cycle;Max_cycle;Signal;HPM_P1;HPM_P2
2023/06/23 00:01:31;;;;;;;19.35;13.57;;;17.50;99.90;;;;;;5076006;28;20413;-82
2023/06/23 00:04:00;;;;;;;20.90;12.45;;;17.50;99.90;;;;;;5068722;28;20043;-82
2023/06/23 00:06:26;;;;;;;17.50;13.05;;;17.50;99.90;;;;;;5084554;28;20036;-82
2023/06/23 00:08:52;;;;;;;20.08;12.23;;;17.50;99.90;;;;;;5085677;28;20186;-82
2023/06/23 00:11:19;;;;;;;16.27;12.02;;;17.50;99.90;;;;;;5086483;28;20433;-82
2023/06/23 00:13:44;;;;;;;16.33;12.10;;;17.40;99.90;;;;;;5070157;28;20040;-82
2023/06/23 00:16:10;;;;;;;14.40;11.52;;;17.40;99.90;;;;;;5081105;28;20047;-82
2023/06/23 00:18:41;;;;;;;16.83;11.15;;;17.40;99.90;;;;;;5065835;28;20036;-82
2023/06/23 00:21:09;;;;;;;15.00;11.23;;;17.40;99.90;;;;;;5089306;27;20084;-82
2023/06/23 00:23:35;;;;;;;16.67;10.43;;;17.40;99.90;;;;;;5060431;27;20044;-82
2023/06/23 00:26:03;;;;;;;15.45;11.00;;;17.40;99.90;;;;;;5054359;28;20100;-82
2023/06/23 00:28:29;;;;;;;16.52;11.93;;;17.40;99.90;;;;;;5070476;28;20394;-82
2023/06/23 00:30:55;;;;;;;16.17;11.80;;;17.30;99.90;;;;;;5081888;27;20502;-82
2023/06/23 00:33:20;;;;;;;16.70;11.82;;;17.30;99.90;;;;;;5072190;28;20127;-82
2023/06/23 00:35:46;;;;;;;16.90;11.85;;;17.30;99.90;;;;;;5088199;27;20035;-81
2023/06/23 00:38:13;;;;;;;13.82;11.45;;;17.30;99.90;;;;;;5081729;28;20034;-82
2023/06/23 00:40:39;;;;;;;12.88;11.20;;;17.30;99.90;;;;;;5075627;27;20189;-82
2023/06/23 00:43:05;;;;;;;17.73;11.60;;;17.40;99.90;;;;;;5071004;27;20036;-82
2023/06/23 00:45:31;;;;;;;19.85;10.60;;;17.30;99.90;;;;;;5080352;28;20057;-81
2023/06/23 00:47:57;;;;;;;15.40;10.60;;;17.40;99.90;;;;;;5073030;27;20052;-82
2023/06/23 00:50:24;;;;;;;15.13;10.43;;;17.40;99.90;;;;;;5082026;27;20039;-82
2023/06/23 00:52:51;;;;;;;17.08;10.75;;;17.40;99.90;;;;;;5088483;28;20533;-82
2023/06/23 00:55:21;;;;;;;14.32;10.75;;;17.30;99.90;;;;;;5070872;27;20057;-81
2023/06/23 00:57:48;;;;;;;16.35;10.20;;;17.30;99.90;;;;;;5076813;28;20121;-82
2023/06/23 01:00:17;;;;;;;15.98;11.25;;;17.30;99.90;;;;;;5066178;27;20172;-82
2023/06/23 01:02:50;;;;;;;15.15;10.20;;;17.30;99.90;;;;;;5080548;27;20036;-81
2023/06/23 01:05:24;;;;;;;15.48;9.93;;;17.30;99.90;;;;;;5075160;27;20101;-82
2023/06/23 01:07:57;;;;;;;15.38;9.45;;;17.30;99.90;;;;;;5082759;28;20059;-82
2023/06/23 01:10:52;;;;;;;12.27;10.23;;;17.30;99.90;;;;;;5069695;27;20039;-81
2023/06/23 01:13:29;;;;;;;12.17;8.90;;;17.30;99.90;;;;;;5072395;28;20391;-82
2023/06/23 01:16:01;;;;;;;12.95;8.32;;;17.20;99.90;;;;;;5082668;27;20044;-82
2023/06/23 01:18:35;;;;;;;13.30;9.57;;;17.20;99.90;;;;;;5083681;28;20145;-82
2023/06/23 01:21:03;;;;;;;;;;;17.20;99.90;;;;;;5077530;27;20039;-81
2023/06/23 01:23:53;;;;;;;11.13;7.63;;;17.20;99.90;;;;;;5095194;27;20347;-82
2023/06/23 01:26:46;;;;;;;10.57;7.82;;;17.20;99.90;;;;;;5088970;28;20092;-82
2023/06/23 01:29:21;;;;;;;12.63;7.93;;;17.20;99.90;;;;;;5069167;27;20047;-81
2023/06/23 01:32:01;;;;;;;14.23;7.75;;;17.20;99.90;;;;;;5085243;27;20416;-81
2023/06/23 01:34:37;;;;;;;11.25;7.18;;;17.10;99.90;;;;;;5071018;27;20071;-81
2023/06/23 01:37:10;;;;;;;13.70;7.10;;;17.10;99.90;;;;;;5086807;27;20355;-82
2023/06/23 01:39:39;;;;;;;9.07;6.03;;;17.10;99.90;;;;;;5071502;27;20023;-81
2023/06/23 01:42:15;;;;;;;11.07;6.80;;;17.10;99.90;;;;;;5079625;27;20469;-81
2023/06/23 01:44:47;;;;;;;13.00;6.75;;;17.10;99.90;;;;;;5086173;27;20039;-81
2023/06/23 01:47:21;;;;;;;9.57;5.93;;;17.10;99.90;;;;;;5078720;28;20036;-81
2023/06/23 01:49:51;;;;;;;7.82;5.97;;;17.10;99.90;;;;;;5074306;27;20039;-81
2023/06/23 01:52:19;;;;;;;8.70;5.93;;;17.10;99.90;;;;;;5070677;27;20047;-81
2023/06/23 01:54:45;;;;;;;7.53;5.78;;;17.10;99.90;;;;;;5092428;27;20039;-81
2023/06/23 01:57:15;;;;;;;9.40;5.70;;;17.10;99.90;;;;;;5071314;27;20047;-81
2023/06/23 01:59:43;;;;;;;11.07;6.28;;;17.10;99.90;;;;;;5065206;27;20033;-81
2023/06/23 02:02:11;;;;;;;8.02;5.88;;;17.00;99.90;;;;;;5076784;27;20050;-81
2023/06/23 02:04:38;;;;;;;12.60;6.03;;;17.00;99.90;;;;;;5077203;27;20035;-81
2023/06/23 02:07:06;;;;;;;9.35;5.95;;;17.00;99.90;;;;;;5073930;27;20039;-81
2023/06/23 02:09:35;;;;;;;7.32;5.55;;;17.00;99.90;;;;;;5080970;27;20040;-81
2023/06/23 02:12:06;;;;;;;9.07;5.93;;;16.90;99.90;;;;;;5072743;27;20036;-81
2023/06/23 02:14:33;;;;;;;10.82;6.25;;;17.00;99.90;;;;;;5071912;27;20168;-81
2023/06/23 02:16:59;;;;;;;7.20;5.28;;;17.00;99.90;;;;;;5071105;27;20088;-81
2023/06/23 02:19:27;;;;;;;13.13;6.35;;;16.90;99.90;;;;;;5086170;27;20047;-81
2023/06/23 02:21:55;;;;;;;7.32;5.60;;;16.90;99.90;;;;;;5074390;28;20449;-81
2023/06/23 02:24:22;;;;;;;7.28;5.63;;;16.90;99.90;;;;;;5083641;28;20081;-81
2023/06/23 02:26:48;;;;;;;10.07;5.78;;;16.80;99.90;;;;;;5067673;27;20558;-81
2023/06/23 02:29:15;;;;;;;10.50;6.38;;;16.70;99.90;;;;;;5077691;28;20122;-81
2023/06/23 02:31:41;;;;;;;10.23;6.15;;;16.70;99.90;;;;;;5060209;27;20122;-81
2023/06/23 02:34:08;;;;;;;9.60;6.80;;;16.70;99.90;;;;;;5079571;27;20309;-81
2023/06/23 02:36:46;;;;;;;10.27;5.82;;;16.70;99.90;;;;;;5082238;27;20127;-81
2023/06/23 02:39:15;;;;;;;13.20;6.85;;;16.70;99.90;;;;;;5067432;28;20028;-81
2023/06/23 02:41:43;;;;;;;11.13;6.43;;;16.70;99.90;;;;;;5064620;28;20052;-81
2023/06/23 02:44:17;;;;;;;11.32;6.00;;;16.70;99.90;;;;;;5069716;28;20038;-81
2023/06/23 02:46:48;;;;;;;10.43;6.78;;;16.70;99.90;;;;;;5068909;27;20051;-81
2023/06/23 02:49:17;;;;;;;8.30;7.05;;;16.70;99.90;;;;;;5083350;28;20051;-81
2023/06/23 02:51:46;;;;;;;8.30;6.57;;;16.60;99.90;;;;;;5065214;28;20039;-81
2023/06/23 02:54:16;;;;;;;11.50;6.75;;;16.60;99.90;;;;;;5067650;28;20039;-81
2023/06/23 02:56:44;;;;;;;9.90;6.85;;;16.60;99.90;;;;;;5068694;27;20126;-81
2023/06/23 02:59:17;;;;;;;10.38;6.78;;;16.60;99.90;;;;;;5066677;27;20058;-81
2023/06/23 03:01:46;;;;;;;12.50;6.85;;;16.50;99.90;;;;;;5086207;27;20039;-81
2023/06/23 03:04:16;;;;;;;13.40;7.28;;;16.50;99.90;;;;;;5082560;28;20114;-81
2023/06/23 03:06:44;;;;;;;10.98;7.55;;;16.50;99.90;;;;;;5068173;27;20176;-81
2023/06/23 03:09:10;;;;;;;11.77;8.23;;;16.50;99.90;;;;;;5083387;28;20042;-81
2023/06/23 03:11:36;;;;;;;11.88;8.25;;;16.50;99.90;;;;;;5080473;28;20074;-81
2023/06/23 03:14:03;;;;;;;13.43;8.68;;;16.50;99.90;;;;;;5081040;28;20122;-81
2023/06/23 03:16:44;;;;;;;11.95;8.52;;;16.40;99.90;;;;;;5062717;28;20466;-81
2023/06/23 03:19:36;;;;;;;14.23;9.30;;;16.40;99.90;;;;;;5082778;27;20039;-81
2023/06/23 03:22:05;;;;;;;14.85;8.35;;;16.40;99.90;;;;;;5083846;28;20401;-81
2023/06/23 03:24:34;;;;;;;13.45;8.75;;;16.40;99.90;;;;;;5084478;27;20494;-81
2023/06/23 03:27:06;;;;;;;16.40;8.77;;;16.40;99.90;;;;;;5087845;27;20497;-80
2023/06/23 03:29:37;;;;;;;13.52;8.05;;;16.40;99.90;;;;;;5066578;27;20436;-80
2023/06/23 03:32:06;;;;;;;10.23;8.27;;;16.40;99.90;;;;;;5081222;27;20106;-80
2023/06/23 03:34:41;;;;;;;12.43;8.63;;;16.30;99.90;;;;;;5070392;27;20051;-80
2023/06/23 03:37:08;;;;;;;12.60;8.32;;;16.40;99.90;;;;;;5074397;28;20509;-81
2023/06/23 03:39:41;;;;;;;13.15;8.15;;;16.30;99.90;;;;;;5087471;27;20051;-81
2023/06/23 03:42:07;;;;;;;13.00;7.45;;;16.30;99.90;;;;;;5088593;27;20104;-80
2023/06/23 03:44:42;;;;;;;16.27;8.52;;;16.40;99.90;;;;;;5078665;27;20414;-80
2023/06/23 03:47:19;;;;;;;13.63;8.18;;;16.30;99.90;;;;;;5079747;28;20047;-80
2023/06/23 03:49:56;;;;;;;13.50;7.53;;;16.40;99.90;;;;;;5067618;27;20047;-81
2023/06/23 03:52:23;;;;;;;15.63;9.15;;;16.30;99.90;;;;;;5063578;28;20233;-80
2023/06/23 03:54:54;;;;;;;14.93;8.38;;;16.40;99.90;;;;;;5074068;27;20039;-80
2023/06/23 03:57:29;;;;;;;15.40;8.65;;;16.30;99.90;;;;;;5081991;28;20032;-81
2023/06/23 03:59:57;;;;;;;11.98;8.60;;;16.40;99.90;;;;;;5061216;28;20076;-81
2023/06/23 04:02:24;;;;;;;12.95;8.93;;;16.40;99.90;;;;;;5063787;28;20222;-80
2023/06/23 04:04:55;;;;;;;14.23;9.05;;;16.40;99.90;;;;;;5083474;28;20042;-81
2023/06/23 04:07:24;;;;;;;11.85;8.25;;;16.40;99.90;;;;;;5082852;28;20043;-81
2023/06/23 04:09:51;;;;;;;11.57;8.15;;;16.40;99.90;;;;;;5082783;28;20040;-81
2023/06/23 04:12:18;;;;;;;16.05;8.40;;;16.30;99.90;;;;;;5059844;28;20043;-80
2023/06/23 04:14:47;;;;;;;13.57;8.25;;;16.40;99.90;;;;;;5080872;28;20087;-81
2023/06/23 04:17:15;;;;;;;15.40;8.77;;;16.40;99.90;;;;;;5065414;28;20067;-81
2023/06/23 04:19:46;;;;;;;13.82;8.02;;;16.40;99.90;;;;;;5069940;28;20032;-80
2023/06/23 04:22:15;;;;;;;11.82;8.07;;;16.40;99.90;;;;;;5079828;28;20081;-80
2023/06/23 04:24:41;;;;;;;12.50;7.93;;;16.40;99.90;;;;;;5077505;28;20159;-80
2023/06/23 04:27:10;;;;;;;12.23;8.30;;;16.50;99.90;;;;;;5069407;28;20620;-81
2023/06/23 04:29:38;;;;;;;11.85;7.78;;;16.50;99.90;;;;;;5065913;28;20118;-81
2023/06/23 04:32:04;;;;;;;16.08;7.85;;;16.50;99.90;;;;;;5081378;28;20050;-81
2023/06/23 04:34:30;;;;;;;12.63;7.57;;;16.60;99.90;;;;;;5079777;28;20421;-81
2023/06/23 04:37:06;;;;;;;11.73;7.72;;;16.60;99.90;;;;;;5071667;28;20108;-80
2023/06/23 04:40:01;;;;;;;13.13;8.25;;;16.60;99.90;;;;;;5080824;28;20031;-80
2023/06/23 04:42:33;;;;;;;16.05;8.25;;;16.60;99.90;;;;;;5069616;28;20436;-80
2023/06/23 04:45:04;;;;;;;15.00;8.32;;;16.60;99.90;;;;;;5082239;28;20039;-81
2023/06/23 04:47:34;;;;;;;13.48;7.20;;;16.60;99.90;;;;;;5064441;28;20156;-80
2023/06/23 04:50:06;;;;;;;9.75;7.28;;;16.60;99.90;;;;;;5087557;28;20101;-81
2023/06/23 04:52:36;;;;;;;12.05;7.63;;;16.60;99.90;;;;;;5076300;28;20406;-81
2023/06/23 04:55:06;;;;;;;15.10;7.78;;;16.70;99.90;;;;;;5080140;28;20434;-81
2023/06/23 04:57:33;;;;;;;9.95;7.38;;;16.60;99.90;;;;;;5064030;28;20047;-81
2023/06/23 05:00:04;;;;;;;8.93;7.65;;;16.70;99.90;;;;;;5087398;28;20077;-80
2023/06/23 05:02:32;;;;;;;12.73;7.70;;;16.70;99.90;;;;;;5063822;28;20093;-81
2023/06/23 05:04:59;;;;;;;13.98;8.45;;;16.80;99.90;;;;;;5068892;27;20040;-80
2023/06/23 05:07:28;;;;;;;15.20;8.13;;;16.70;99.90;;;;;;5062690;27;20054;-80
2023/06/23 05:09:55;;;;;;;11.88;8.02;;;16.70;99.90;;;;;;5086092;28;20131;-81
2023/06/23 05:12:23;;;;;;;14.27;8.68;;;16.80;99.90;;;;;;5070072;27;20162;-80
2023/06/23 05:14:50;;;;;;;10.98;7.85;;;16.80;99.90;;;;;;5089986;27;20043;-81
2023/06/23 05:17:17;;;;;;;15.13;8.05;;;16.80;99.90;;;;;;5089447;27;20043;-80
2023/06/23 05:19:46;;;;;;;11.38;8.48;;;16.80;99.90;;;;;;5087275;27;20075;-81
2023/06/23 05:22:15;;;;;;;12.23;7.65;;;16.80;99.90;;;;;;5072999;28;20142;-81
2023/06/23 05:24:49;;;;;;;12.98;8.18;;;16.90;99.90;;;;;;5086014;28;20043;-81
2023/06/23 05:27:19;;;;;;;14.40;8.35;;;16.80;99.90;;;;;;5089526;27;20059;-80
2023/06/23 05:29:47;;;;;;;15.77;8.52;;;16.90;99.90;;;;;;5073187;28;20492;-80
2023/06/23 05:32:15;;;;;;;11.20;7.80;;;16.80;99.90;;;;;;5080984;28;20044;-81
2023/06/23 05:34:45;;;;;;;13.63;7.88;;;16.80;99.90;;;;;;5071153;27;20047;-81
2023/06/23 05:37:12;;;;;;;12.55;8.45;;;16.80;99.90;;;;;;5076583;27;20135;-80
2023/06/23 05:39:40;;;;;;;10.65;7.72;;;16.80;99.90;;;;;;5086204;27;20044;-81
2023/06/23 05:42:06;;;;;;;12.82;8.13;;;16.80;99.90;;;;;;5063935;27;20399;-81
2023/06/23 05:44:33;;;;;;;12.95;8.70;;;16.90;99.90;;;;;;5072478;27;20039;-81
2023/06/23 05:47:00;;;;;;;10.80;8.05;;;16.90;99.90;;;;;;5081830;28;20047;-81
2023/06/23 05:49:29;;;;;;;10.52;7.47;;;16.90;99.90;;;;;;5086306;28;20108;-80
2023/06/23 05:52:01;;;;;;;16.85;8.48;;;16.90;99.90;;;;;;5060793;28;20131;-81
2023/06/23 05:54:29;;;;;;;12.85;7.63;;;16.90;99.90;;;;;;5078784;28;20067;-81
2023/06/23 05:56:59;;;;;;;12.13;8.30;;;17.00;99.90;;;;;;5074814;28;20049;-81
2023/06/23 05:59:39;;;;;;;11.68;7.75;;;17.00;99.90;;;;;;5076651;28;20130;-80
2023/06/23 06:02:10;;;;;;;12.57;8.35;;;17.10;99.90;;;;;;5077140;28;20405;-81
2023/06/23 06:04:40;;;;;;;11.13;8.13;;;17.10;99.90;;;;;;5070183;27;20045;-81
2023/06/23 06:07:09;;;;;;;12.82;8.32;;;17.10;99.90;;;;;;5073532;27;20479;-81
2023/06/23 06:09:39;;;;;;;13.90;8.45;;;17.10;99.90;;;;;;5088171;28;20039;-81
2023/06/23 06:12:06;;;;;;;14.13;9.23;;;17.10;99.90;;;;;;5057555;27;20298;-81
2023/06/23 06:14:34;;;;;;;9.93;7.53;;;17.30;99.90;;;;;;5070082;27;20043;-80
2023/06/23 06:17:03;;;;;;;10.88;8.15;;;17.30;99.90;;;;;;5091407;28;20105;-81
2023/06/23 06:19:30;;;;;;;13.32;8.30;;;17.50;99.90;;;;;;5060558;27;20335;-81
2023/06/23 06:21:57;;;;;;;11.35;7.97;;;17.70;99.90;;;;;;5082746;28;20051;-80
2023/06/23 06:24:24;;;;;;;11.98;8.40;;;17.90;99.90;;;;;;5068585;28;20055;-81
2023/06/23 06:26:56;;;;;;;12.68;8.70;;;18.10;99.90;;;;;;5078088;27;20163;-81
2023/06/23 06:29:22;;;;;;;11.95;8.63;;;18.20;99.90;;;;;;5069168;27;20046;-81
2023/06/23 06:31:49;;;;;;;13.13;8.88;;;18.50;99.90;;;;;;5062671;28;20040;-81
2023/06/23 06:34:18;;;;;;;13.55;8.60;;;18.60;99.90;;;;;;5079614;27;20048;-81
2023/06/23 06:36:47;;;;;;;13.20;7.97;;;18.60;99.90;;;;;;5088390;27;20058;-81
2023/06/23 06:39:14;;;;;;;12.50;8.43;;;18.70;99.90;;;;;;5085609;28;20047;-81
2023/06/23 06:41:41;;;;;;;10.85;7.88;;;18.90;99.90;;;;;;5077865;27;20058;-81
2023/06/23 06:44:06;;;;;;;10.50;7.95;;;18.90;99.90;;;;;;5068533;28;20051;-81
2023/06/23 06:46:33;;;;;;;10.43;7.68;;;19.10;99.90;;;;;;5082670;28;20040;-81
2023/06/23 06:49:00;;;;;;;11.88;7.20;;;19.10;99.90;;;;;;5072664;27;20368;-81
2023/06/23 06:51:27;;;;;;;10.57;6.95;;;19.10;99.90;;;;;;5072487;27;20043;-81
2023/06/23 06:53:53;;;;;;;9.95;6.93;;;19.30;99.90;;;;;;5073504;28;20513;-81
2023/06/23 06:56:20;;;;;;;7.88;6.70;;;19.30;99.90;;;;;;5078520;27;20074;-81
2023/06/23 06:58:46;;;;;;;13.88;7.68;;;19.40;99.90;;;;;;5082401;28;20384;-81
2023/06/23 07:01:13;;;;;;;7.55;6.35;;;19.40;99.90;;;;;;5064441;28;20036;-81
2023/06/23 07:03:41;;;;;;;10.10;6.40;;;19.40;99.90;;;;;;5069483;28;20061;-81
2023/06/23 07:06:06;;;;;;;8.70;6.18;;;19.40;99.90;;;;;;5073662;27;20039;-81
2023/06/23 07:08:32;;;;;;;10.07;6.72;;;19.50;99.90;;;;;;5073710;27;20042;-81
2023/06/23 07:10:58;;;;;;;7.95;5.28;;;19.70;99.90;;;;;;5081380;27;20100;-81
2023/06/23 07:13:23;;;;;;;8.68;5.38;;;19.70;99.90;;;;;;5067425;27;20039;-81
2023/06/23 07:15:49;;;;;;;7.80;5.57;;;19.90;99.90;;;;;;5074215;28;20051;-81
2023/06/23 07:18:14;;;;;;;10.02;5.70;;;19.90;99.90;;;;;;5086346;27;20058;-81
2023/06/23 07:20:40;;;;;;;7.43;5.10;;;20.00;99.90;;;;;;5071480;28;20028;-81
2023/06/23 07:23:06;;;;;;;7.60;5.18;;;20.00;99.90;;;;;;5087066;27;20538;-81
2023/06/23 07:25:31;;;;;;;6.30;4.88;;;20.00;99.90;;;;;;5069973;27;20601;-81
2023/06/23 07:28:00;;;;;;;9.52;4.90;;;20.20;99.90;;;;;;5088403;28;20042;-81
2023/06/23 07:30:26;;;;;;;5.88;4.47;;;20.30;99.90;;;;;;5077930;28;20173;-81
2023/06/23 07:32:52;;;;;;;7.00;4.70;;;20.30;99.90;;;;;;5067762;27;20542;-81
2023/06/23 07:35:17;;;;;;;5.97;4.65;;;20.40;99.90;;;;;;5072309;28;20055;-81
2023/06/23 07:37:43;;;;;;;6.68;4.60;;;20.50;99.90;;;;;;5082285;28;20043;-81
2023/06/23 07:40:09;;;;;;;7.15;4.63;;;20.60;99.90;;;;;;5084441;27;20136;-81
2023/06/23 07:42:35;;;;;;;7.32;4.88;;;20.50;99.90;;;;;;5070601;28;20037;-81
2023/06/23 07:45:04;;;;;;;5.68;4.70;;;20.60;99.90;;;;;;5081018;27;20404;-81
2023/06/23 07:47:30;;;;;;;6.05;4.40;;;20.80;99.90;;;;;;5072987;28;20047;-81
2023/06/23 07:49:56;;;;;;;5.97;4.45;;;21.00;99.90;;;;;;5075833;27;20035;-81
2023/06/23 07:52:22;;;;;;;5.63;3.88;;;21.10;99.90;;;;;;5079339;28;20047;-81
2023/06/23 07:54:48;;;;;;;6.68;4.30;;;21.10;99.90;;;;;;5072724;27;20163;-81
2023/06/23 07:57:13;;;;;;;5.47;3.90;;;21.20;99.90;;;;;;5077859;28;20526;-81
2023/06/23 07:59:39;;;;;;;5.63;3.95;;;21.20;99.90;;;;;;5079638;28;20078;-81
2023/06/23 08:02:05;;;;;;;5.43;3.88;;;21.20;99.90;;;;;;5067974;28;20027;-81
2023/06/23 08:04:31;;;;;;;4.80;3.70;;;21.30;99.90;;;;;;5071268;28;20502;-81
2023/06/23 08:06:57;;;;;;;6.85;3.53;;;21.40;99.90;;;;;;5080215;28;20044;-81
2023/06/23 08:09:22;;;;;;;4.50;3.30;;;21.50;99.90;;;;;;5074257;28;20064;-81
2023/06/23 08:11:48;;;;;;;5.22;3.90;;;21.40;99.90;;;;;;5067792;28;20036;-81
2023/06/23 08:14:14;;;;;;;4.72;3.42;;;21.50;99.90;;;;;;5075439;28;20320;-81
2023/06/23 08:16:39;;;;;;;5.50;3.05;;;21.50;99.90;;;;;;5064440;28;20417;-81
2023/06/23 08:19:05;;;;;;;5.40;3.75;;;21.70;99.90;;;;;;5066517;28;20043;-81
2023/06/23 08:21:31;;;;;;;5.40;3.30;;;21.90;99.90;;;;;;5087213;28;20039;-81
2023/06/23 08:23:57;;;;;;;5.20;3.63;;;21.80;99.90;;;;;;5077693;28;20046;-81
2023/06/23 08:26:23;;;;;;;8.10;3.83;;;21.80;99.90;;;;;;5079844;28;20035;-81
2023/06/23 08:28:48;;;;;;;5.30;3.75;;;21.90;99.90;;;;;;5078983;28;20050;-81
2023/06/23 08:31:14;;;;;;;4.47;4.07;;;21.90;99.90;;;;;;5080300;28;20036;-81
2023/06/23 08:33:40;;;;;;;6.22;3.95;;;22.00;99.90;;;;;;5072133;28;20047;-81
2023/06/23 08:36:06;;;;;;;6.07;3.78;;;22.00;99.90;;;;;;5067983;28;20054;-81
2023/06/23 08:38:31;;;;;;;6.30;3.88;;;22.00;99.90;;;;;;5087798;28;20062;-82
2023/06/23 08:40:58;;;;;;;5.53;3.90;;;22.20;99.90;;;;;;5087212;28;20056;-81
2023/06/23 08:43:26;;;;;;;4.93;3.63;;;22.10;99.90;;;;;;5079848;28;20043;-81
2023/06/23 08:46:14;;;;;;;5.70;3.88;;;22.30;99.90;;;;;;5089018;27;20045;-82
2023/06/23 08:48:45;;;;;;;5.43;4.20;;;22.20;99.90;;;;;;5079324;27;20167;-81
2023/06/23 08:51:11;;;;;;;8.57;4.00;;;22.40;99.90;;;;;;5087617;27;20187;-81
2023/06/23 08:53:37;;;;;;;5.13;4.13;;;22.30;99.90;;;;;;5091527;27;20331;-81
2023/06/23 08:56:04;;;;;;;6.60;4.40;;;22.60;99.90;;;;;;5071935;27;20045;-81
2023/06/23 08:58:30;;;;;;;5.57;4.13;;;22.50;99.90;;;;;;5091941;27;20493;-81
2023/06/23 09:00:58;;;;;;;4.63;3.55;;;22.70;99.90;;;;;;5066945;28;20036;-81
2023/06/23 09:03:25;;;;;;;5.50;3.50;;;22.50;99.90;;;;;;5075493;28;20036;-81
2023/06/23 09:05:51;;;;;;;5.57;4.35;;;22.60;99.90;;;;;;5070280;27;20104;-81
2023/06/23 09:08:16;;;;;;;5.35;3.85;;;22.50;99.90;;;;;;5073468;27;20977;-81
2023/06/23 09:10:43;;;;;;;5.47;4.25;;;22.60;99.90;;;;;;5090517;27;20074;-81
2023/06/23 09:13:20;;;;;;;5.75;4.32;;;22.70;99.90;;;;;;5092059;27;20256;-81
2023/06/23 09:15:48;;;;;;;6.30;4.68;;;22.70;99.90;;;;;;5063254;28;20125;-81
2023/06/23 09:18:15;;;;;;;5.93;4.53;;;22.70;99.90;;;;;;5067544;27;20259;-81
2023/06/23 09:20:51;;;;;;;5.88;5.18;;;22.60;99.90;;;;;;5089310;27;20053;-81
2023/06/23 09:23:18;;;;;;;6.78;4.72;;;22.70;99.90;;;;;;5088132;27;20046;-81
2023/06/23 09:25:47;;;;;;;7.50;5.70;;;22.70;99.90;;;;;;5069225;28;20036;-81
2023/06/23 09:28:34;;;;;;;6.85;4.88;;;22.70;99.90;;;;;;5071820;27;20520;-81
2023/06/23 09:31:13;;;;;;;7.30;4.72;;;22.50;99.90;;;;;;5069030;28;20071;-82
2023/06/23 09:33:46;;;;;;;6.72;4.45;;;22.60;99.90;;;;;;5078213;27;20047;-81
2023/06/23 09:36:11;;;;;;;5.60;4.80;;;22.80;99.90;;;;;;5068731;27;20080;-81
2023/06/23 09:38:38;;;;;;;6.05;4.45;;;22.80;99.90;;;;;;5088418;27;20058;-81
2023/06/23 09:41:14;;;;;;;7.85;4.60;;;22.90;99.90;;;;;;5083961;28;20139;-81
2023/06/23 09:43:45;;;;;;;12.18;5.32;;;23.10;99.90;;;;;;5081650;28;20047;-81
2023/06/23 09:46:13;;;;;;;7.10;5.97;;;23.30;99.90;;;;;;5077241;28;20118;-81
2023/06/23 09:48:40;;;;;;;7.80;4.95;;;23.00;99.90;;;;;;5070646;27;20031;-81
2023/06/23 09:51:12;;;;;;;8.05;4.95;;;23.10;99.90;;;;;;5085600;28;20069;-81
2023/06/23 09:53:39;;;;;;;6.20;4.30;;;23.40;99.90;;;;;;5084352;27;20050;-81
2023/06/23 09:56:07;;;;;;;7.72;4.20;;;23.40;99.90;;;;;;5086822;27;20438;-81
2023/06/23 09:58:38;;;;;;;6.28;4.45;;;23.50;99.90;;;;;;5085721;28;20134;-81
2023/06/23 10:01:08;;;;;;;5.10;4.40;;;23.40;99.90;;;;;;5063235;28;20047;-81
2023/06/23 10:03:47;;;;;;;5.70;4.40;;;23.40;99.90;;;;;;5069421;27;20438;-81
2023/06/23 10:06:36;;;;;;;6.05;4.10;;;23.20;99.90;;;;;;5069479;28;20127;-81
2023/06/23 10:09:09;;;;;;;5.28;4.30;;;23.50;99.90;;;;;;5070644;28;20032;-81
2023/06/23 10:11:39;;;;;;;5.65;4.10;;;23.80;99.90;;;;;;5085616;27;20046;-81
2023/06/23 10:14:11;;;;;;;5.22;3.80;;;24.10;1.00;;;;;;5083412;27;20123;-81
2023/06/23 10:16:41;;;;;;;6.15;4.10;;;24.00;99.90;;;;;;5068524;28;20273;-81
2023/06/23 10:19:07;;;;;;;5.43;4.38;;;24.30;99.90;;;;;;5078053;28;20638;-81
2023/06/23 10:21:36;;;;;;;4.82;3.35;;;24.40;1.00;;;;;;5087006;28;20209;-81
2023/06/23 10:24:23;;;;;;;5.25;3.47;;;24.60;5.20;;;;;;5079015;28;20093;-81
2023/06/23 10:26:53;;;;;;;3.63;3.08;;;24.60;1.00;;;;;;5074971;27;20215;-81
2023/06/23 10:29:19;;;;;;;5.15;3.75;;;24.50;99.90;;;;;;5075710;27;20205;-81
2023/06/23 10:31:46;;;;;;;7.38;3.90;;;24.50;99.90;;;;;;5080382;28;20071;-81
2023/06/23 10:34:13;;;;;;;6.22;4.03;;;24.60;1.00;;;;;;5073464;27;20498;-81
2023/06/23 10:36:41;;;;;;;5.82;4.30;;;24.90;1.00;;;;;;5091507;27;20086;-81
2023/06/23 10:39:10;;;;;;;7.40;4.10;;;24.70;91.90;;;;;;5086145;27;20035;-81
2023/06/23 10:41:37;;;;;;;6.40;3.90;;;24.40;99.90;;;;;;5080942;27;20439;-81
2023/06/23 10:44:04;;;;;;;8.40;5.05;;;24.50;99.90;;;;;;5082491;28;20328;-81
2023/06/23 10:46:30;;;;;;;6.25;4.88;;;24.70;99.90;;;;;;5065765;28;20036;-81
2023/06/23 10:48:56;;;;;;;8.38;4.63;;;24.40;99.90;;;;;;5055533;28;20126;-81
2023/06/23 10:51:25;;;;;;;6.22;4.78;;;23.80;99.90;;;;;;5085016;27;20347;-81
2023/06/23 10:53:58;;;;;;;7.28;4.90;;;24.30;99.90;;;;;;5069606;28;20596;-81
2023/06/23 10:56:38;;;;;;;5.68;4.50;;;24.50;99.90;;;;;;5085510;27;20043;-81
2023/06/23 10:59:32;;;;;;;5.78;4.40;;;24.50;99.90;;;;;;5091704;27;20047;-81
2023/06/23 11:02:01;;;;;;;6.65;4.20;;;23.90;99.90;;;;;;5080094;28;20536;-81
2023/06/23 11:04:31;;;;;;;6.38;4.30;;;23.70;99.90;;;;;;5078364;28;20082;-81
2023/06/23 11:07:08;;;;;;;4.72;3.72;;;24.30;1.00;;;;;;5082139;27;20415;-81
2023/06/23 11:09:55;;;;;;;5.30;3.92;;;24.30;1.00;;;;;;5082096;27;20047;-81
2023/06/23 11:12:40;;;;;;;4.18;3.15;;;24.60;99.90;;;;;;5074451;27;20061;-81
2023/06/23 11:15:15;;;;;;;6.68;3.00;;;24.90;99.90;;;;;;5067191;27;20138;-81
2023/06/23 11:17:46;;;;;;;4.70;3.42;;;24.90;41.20;;;;;;5063618;28;20044;-81
2023/06/23 11:20:24;;;;;;;3.67;3.10;;;24.70;99.90;;;;;;5085227;27;20044;-81
2023/06/23 11:23:10;;;;;;;5.60;3.13;;;24.90;99.90;;;;;;5084456;27;20046;-81
2023/06/23 11:25:46;;;;;;;4.40;3.53;;;25.10;1.00;;;;;;5076776;28;20059;-81
2023/06/23 11:28:36;;;;;;;3.90;3.35;;;24.60;90.80;;;;;;5080081;28;20301;-80
2023/06/23 11:31:15;;;;;;;5.82;3.50;;;24.60;99.90;;;;;;5098867;27;20059;-81
2023/06/23 11:33:41;;;;;;;4.65;2.70;;;25.20;1.00;;;;;;5080937;27;20502;-81
2023/06/23 11:36:08;;;;;;;4.22;3.00;;;24.90;99.90;;;;;;5074917;28;20047;-81
2023/06/23 11:38:37;;;;;;;3.55;3.10;;;25.00;99.90;;;;;;5069293;27;20046;-81
2023/06/23 11:41:03;;;;;;;5.82;3.20;;;24.70;99.90;;;;;;5087460;28;20581;-81
2023/06/23 11:43:33;;;;;;;3.85;3.25;;;24.90;99.90;;;;;;5063582;28;20050;-81
2023/06/23 11:46:10;;;;;;;8.13;3.50;;;25.00;99.90;;;;;;5085551;28;20065;-80
2023/06/23 11:48:36;;;;;;;4.18;3.25;;;24.70;99.90;;;;;;5078568;28;20172;-80
2023/06/23 11:51:06;;;;;;;6.72;3.28;;;24.50;99.90;;;;;;5067274;28;20377;-81
2023/06/23 11:53:41;;;;;;;7.18;4.15;;;24.70;99.90;;;;;;5065145;28;20539;-81
2023/06/23 11:56:08;;;;;;;5.55;4.38;;;24.90;1.00;;;;;;5066947;28;20044;-80
2023/06/23 11:58:34;;;;;;;7.53;5.60;;;25.00;1.00;;;;;;5075888;27;20054;-81
2023/06/23 12:01:04;;;;;;;5.55;4.75;;;24.80;1.00;;;;;;5072529;28;20075;-81
2023/06/23 12:03:30;;;;;;;5.35;4.25;;;24.50;99.90;;;;;;5085653;28;20082;-82
2023/06/23 12:05:56;;;;;;;8.20;4.53;;;24.50;1.00;;;;;;5085985;28;20070;-81
2023/06/23 12:08:27;;;;;;;7.88;4.28;;;24.40;99.90;;;;;;5091316;28;20503;-81
2023/06/23 12:10:53;;;;;;;7.68;4.50;;;24.50;1.00;;;;;;5082725;28;20089;-81
2023/06/23 12:13:20;;;;;;;6.95;5.18;;;24.10;99.90;;;;;;5084294;28;20045;-81
2023/06/23 12:15:46;;;;;;;4.75;3.72;;;24.30;99.90;;;;;;5070271;28;20134;-81
2023/06/23 12:18:12;;;;;;;4.10;2.75;;;24.80;99.90;;;;;;5082807;28;20454;-81
2023/06/23 12:20:39;;;;;;;5.35;3.35;;;24.90;99.90;;;;;;5066228;28;20031;-81
2023/06/23 12:23:09;;;;;;;10.10;3.10;;;24.80;99.90;;;;;;5066386;28;20036;-81
2023/06/23 12:25:43;;;;;;;4.68;2.70;;;25.00;99.90;;;;;;5083821;28;20046;-81
2023/06/23 12:28:14;;;;;;;5.55;3.10;;;24.90;99.10;;;;;;5069996;28;20450;-81
2023/06/23 12:30:41;;;;;;;5.80;3.58;;;25.10;99.90;;;;;;5091729;28;20035;-81
2023/06/23 12:33:23;;;;;;;5.55;2.88;;;25.00;74.20;;;;;;5076092;28;20052;-81
2023/06/23 12:36:14;;;;;;;10.18;3.17;;;25.50;99.90;;;;;;5070111;28;20451;-80
2023/06/23 12:38:39;;;;;;;5.53;3.50;;;25.30;50.60;;;;;;5084475;28;20039;-81
2023/06/23 12:41:23;;;;;;;6.10;3.40;;;25.20;56.50;;;;;;5080675;28;20115;-81
2023/06/23 12:43:52;;;;;;;6.47;3.08;;;25.00;63.80;;;;;;5066627;28;20081;-81
2023/06/23 12:46:20;;;;;;;3.70;2.75;;;25.20;1.00;;;;;;5065992;28;20397;-80
2023/06/23 12:48:48;;;;;;;4.90;2.88;;;25.30;1.00;;;;;;5077356;28;20353;-81
2023/06/23 12:51:14;;;;;;;5.28;3.30;;;25.10;1.00;;;;;;5065445;28;20100;-81
2023/06/23 12:53:40;;;;;;;7.88;3.05;;;24.90;1.00;;;;;;5084920;28;20040;-81
2023/06/23 12:56:06;;;;;;;4.60;3.10;;;24.90;1.00;;;;;;5075245;28;20407;-81